Main page
METAR-TAF:

METAR-TAF

Airports :

Ramsar, Iran

Ramsar International Airport

latitude: 36-54N, longitude: 050-40E, elevation: -23 m

Current weather observation

The report was made 33 minutes ago, at 20:00 UTC
Wind 2 kt from variable directions
Temperature 15°C
Humidity 88%
Pressure 1016 hPa
Visibility: 5000 m
Overcast at a height of 1000 ft
mist

METAR: OINR 302000Z VRB02KT 5000 BR OVC010 15/13 Q1016

Time: 01:03 (20:33 UTC)


TAF: missing

Weather observations and forecasts of more than 4000 airports (METAR and TAF reports).

The available stations are represented by yellow and red dots on the map.

Hover mouse over dot to see the name of the station.

Then click to see weather observations and forecasts.

To change the map : click on the green buttons with a black cross to zoom in, on the green button with a dash to zoom out, or on the green arrows for adjacent maps.


METAR-TAF: